ADDS METAR Data INFO
IDs: Format: Raw Decoded Include TAF

Data at: 1522 UTC 26 Apr 2018

METAR for:KFGX (Flemingsburg Arpt, KY, US)
Text:KFGX 261515Z AUTO 19005KT 10SM CLR 17/12 A2994 RMK AO2 T01660120
Temperature: 16.6°C ( 62°F)
Dewpoint: 12.0°C ( 54°F) [RH = 74%]
Pressure (altimeter):29.94 inches Hg (1014.0 mb)
Winds:from the S (190 degrees) at 6 MPH (5 knots; 2.6 m/s)
Visibility:10 or more sm (16+ km)
Ceiling:at least 12,000 feet AGL
Clouds:sky clear below 12,000 feet AGL
QC Flag:automated observation with no human augmentation